sensor_id;sensor_type;location;lat;lon;timestamp;P1;durP1;ratioP1;P2;durP2;ratioP2
26838;SDS011;40088;51.214;6.786;2022-11-20T00:07:10;67.50;;;29.48;;
26838;SDS011;40088;51.214;6.786;2022-11-20T00:17:11;64.93;;;27.15;;
26838;SDS011;40088;51.214;6.786;2022-11-20T00:27:11;59.75;;;24.60;;
26838;SDS011;40088;51.214;6.786;2022-11-20T00:37:11;46.50;;;22.35;;
26838;SDS011;40088;51.214;6.786;2022-11-20T00:47:11;38.97;;;19.45;;
26838;SDS011;40088;51.214;6.786;2022-11-20T00:57:12;42.90;;;20.52;;
26838;SDS011;40088;51.214;6.786;2022-11-20T01:07:12;40.85;;;21.33;;
26838;SDS011;40088;51.214;6.786;2022-11-20T01:17:12;49.08;;;22.20;;
26838;SDS011;40088;51.214;6.786;2022-11-20T01:27:12;35.22;;;20.90;;
26838;SDS011;40088;51.214;6.786;2022-11-20T01:37:13;33.42;;;19.67;;
26838;SDS011;40088;51.214;6.786;2022-11-20T01:47:14;37.08;;;20.77;;
26838;SDS011;40088;51.214;6.786;2022-11-20T01:57:20;37.15;;;19.67;;
26838;SDS011;40088;51.214;6.786;2022-11-20T02:07:22;30.15;;;18.25;;
26838;SDS011;40088;51.214;6.786;2022-11-20T02:17:23;26.83;;;17.75;;
26838;SDS011;40088;51.214;6.786;2022-11-20T02:27:25;27.30;;;16.52;;
26838;SDS011;40088;51.214;6.786;2022-11-20T02:37:28;23.05;;;16.02;;
26838;SDS011;40088;51.214;6.786;2022-11-20T02:47:31;22.95;;;15.35;;
26838;SDS011;40088;51.214;6.786;2022-11-20T02:57:31;24.42;;;14.98;;
26838;SDS011;40088;51.214;6.786;2022-11-20T03:07:32;20.10;;;14.70;;
26838;SDS011;40088;51.214;6.786;2022-11-20T03:17:32;20.17;;;14.38;;
26838;SDS011;40088;51.214;6.786;2022-11-20T03:27:33;21.58;;;13.90;;
26838;SDS011;40088;51.214;6.786;2022-11-20T03:37:34;20.17;;;13.73;;
26838;SDS011;40088;51.214;6.786;2022-11-20T03:47:34;19.70;;;13.48;;
26838;SDS011;40088;51.214;6.786;2022-11-20T03:57:35;16.98;;;12.52;;
26838;SDS011;40088;51.214;6.786;2022-11-20T04:07:35;17.40;;;12.73;;
26838;SDS011;40088;51.214;6.786;2022-11-20T04:17:35;15.88;;;11.85;;
26838;SDS011;40088;51.214;6.786;2022-11-20T04:27:35;16.63;;;11.90;;
26838;SDS011;40088;51.214;6.786;2022-11-20T04:37:36;14.90;;;11.43;;
26838;SDS011;40088;51.214;6.786;2022-11-20T04:47:36;15.90;;;11.15;;
26838;SDS011;40088;51.214;6.786;2022-11-20T04:57:36;16.17;;;11.27;;
26838;SDS011;40088;51.214;6.786;2022-11-20T05:07:37;15.18;;;10.85;;
26838;SDS011;40088;51.214;6.786;2022-11-20T05:17:37;12.63;;;9.98;;
26838;SDS011;40088;51.214;6.786;2022-11-20T05:27:37;11.68;;;9.60;;
26838;SDS011;40088;51.214;6.786;2022-11-20T05:37:37;11.68;;;9.57;;
26838;SDS011;40088;51.214;6.786;2022-11-20T05:47:38;11.63;;;9.52;;
26838;SDS011;40088;51.214;6.786;2022-11-20T05:57:38;11.43;;;8.90;;
26838;SDS011;40088;51.214;6.786;2022-11-20T06:07:38;11.18;;;8.85;;
26838;SDS011;40088;51.214;6.786;2022-11-20T06:17:38;11.25;;;9.27;;
26838;SDS011;40088;51.214;6.786;2022-11-20T06:27:39;11.30;;;8.77;;
26838;SDS011;40088;51.214;6.786;2022-11-20T06:37:39;11.65;;;9.30;;
26838;SDS011;40088;51.214;6.786;2022-11-20T06:47:39;12.15;;;8.80;;
26838;SDS011;40088;51.214;6.786;2022-11-20T06:57:39;11.13;;;9.07;;
26838;SDS011;40088;51.214;6.786;2022-11-20T07:07:40;11.20;;;8.73;;
26838;SDS011;40088;51.214;6.786;2022-11-20T07:17:40;10.13;;;8.48;;
26838;SDS011;40088;51.214;6.786;2022-11-20T07:27:40;9.55;;;8.15;;
26838;SDS011;40088;51.214;6.786;2022-11-20T07:37:40;9.73;;;7.85;;
26838;SDS011;40088;51.214;6.786;2022-11-20T07:47:41;9.48;;;7.30;;
26838;SDS011;40088;51.214;6.786;2022-11-20T07:57:41;9.73;;;8.18;;
26838;SDS011;40088;51.214;6.786;2022-11-20T08:07:42;10.90;;;8.63;;
26838;SDS011;40088;51.214;6.786;2022-11-20T08:17:43;10.27;;;8.50;;
26838;SDS011;40088;51.214;6.786;2022-11-20T08:27:44;9.85;;;8.70;;
26838;SDS011;40088;51.214;6.786;2022-11-20T08:37:47;10.95;;;8.30;;
26838;SDS011;40088;51.214;6.786;2022-11-20T08:47:47;10.25;;;8.25;;
26838;SDS011;40088;51.214;6.786;2022-11-20T08:57:48;10.63;;;8.65;;
26838;SDS011;40088;51.214;6.786;2022-11-20T09:07:49;14.60;;;9.25;;
26838;SDS011;40088;51.214;6.786;2022-11-20T09:17:53;11.40;;;8.70;;
26838;SDS011;40088;51.214;6.786;2022-11-20T09:27:57;9.63;;;8.63;;
26838;SDS011;40088;51.214;6.786;2022-11-20T09:38:03;10.20;;;8.70;;
26838;SDS011;40088;51.214;6.786;2022-11-20T09:58:31;11.25;;;8.82;;
26838;SDS011;40088;51.214;6.786;2022-11-20T10:08:43;10.88;;;8.57;;
26838;SDS011;40088;51.214;6.786;2022-11-20T10:18:55;9.73;;;8.20;;
26838;SDS011;40088;51.214;6.786;2022-11-20T10:29:22;8.95;;;8.00;;
26838;SDS011;40088;51.214;6.786;2022-11-20T10:39:39;10.32;;;8.75;;
26838;SDS011;40088;51.214;6.786;2022-11-20T10:49:51;11.10;;;8.20;;
26838;SDS011;40088;51.214;6.786;2022-11-20T11:10:13;19.38;;;9.43;;
26838;SDS011;40088;51.214;6.786;2022-11-20T11:20:26;16.17;;;8.95;;
26838;SDS011;40088;51.214;6.786;2022-11-20T11:30:27;14.27;;;9.50;;
26838;SDS011;40088;51.214;6.786;2022-11-20T11:50:32;11.60;;;9.38;;
26838;SDS011;40088;51.214;6.786;2022-11-20T12:00:33;10.73;;;9.13;;
26838;SDS011;40088;51.214;6.786;2022-11-20T12:10:43;11.90;;;9.63;;
26838;SDS011;40088;51.214;6.786;2022-11-20T12:20:55;8.77;;;7.07;;
26838;SDS011;40088;51.214;6.786;2022-11-20T12:32:01;12.93;;;9.55;;
26838;SDS011;40088;51.214;6.786;2022-11-20T13:24:19;63.58;;;50.33;;
26838;SDS011;40088;51.214;6.786;2022-11-20T13:34:24;55.65;;;43.45;;
26838;SDS011;40088;51.214;6.786;2022-11-20T13:44:46;52.20;;;41.00;;
26838;SDS011;40088;51.214;6.786;2022-11-20T14:05:17;40.63;;;34.47;;
26838;SDS011;40088;51.214;6.786;2022-11-20T14:15:25;43.05;;;34.25;;
26838;SDS011;40088;51.214;6.786;2022-11-20T14:25:33;36.70;;;30.77;;
26838;SDS011;40088;51.214;6.786;2022-11-20T14:35:37;37.22;;;30.55;;
26838;SDS011;40088;51.214;6.786;2022-11-20T14:45:46;32.38;;;28.27;;
26838;SDS011;40088;51.214;6.786;2022-11-20T14:56:00;34.78;;;27.58;;
26838;SDS011;40088;51.214;6.786;2022-11-20T15:06:01;31.90;;;26.90;;
26838;SDS011;40088;51.214;6.786;2022-11-20T15:16:03;31.75;;;26.95;;
26838;SDS011;40088;51.214;6.786;2022-11-20T15:26:20;31.73;;;26.10;;
26838;SDS011;40088;51.214;6.786;2022-11-20T15:36:24;30.17;;;25.98;;
26838;SDS011;40088;51.214;6.786;2022-11-20T15:46:26;29.33;;;24.08;;
26838;SDS011;40088;51.214;6.786;2022-11-20T16:06:28;26.63;;;23.40;;
26838;SDS011;40088;51.214;6.786;2022-11-20T16:16:29;26.02;;;22.20;;
26838;SDS011;40088;51.214;6.786;2022-11-20T16:26:32;23.58;;;20.90;;
26838;SDS011;40088;51.214;6.786;2022-11-20T16:36:33;24.05;;;21.25;;
26838;SDS011;40088;51.214;6.786;2022-11-20T16:46:34;23.48;;;19.98;;
26838;SDS011;40088;51.214;6.786;2022-11-20T16:56:34;28.40;;;21.65;;
26838;SDS011;40088;51.214;6.786;2022-11-20T17:06:36;22.88;;;20.45;;
26838;SDS011;40088;51.214;6.786;2022-11-20T17:16:39;22.98;;;19.63;;
26838;SDS011;40088;51.214;6.786;2022-11-20T17:26:40;21.52;;;19.23;;
26838;SDS011;40088;51.214;6.786;2022-11-20T17:36:42;25.80;;;19.02;;
26838;SDS011;40088;51.214;6.786;2022-11-20T17:46:45;19.92;;;17.83;;
26838;SDS011;40088;51.214;6.786;2022-11-20T17:56:46;19.55;;;16.60;;
26838;SDS011;40088;51.214;6.786;2022-11-20T18:07:04;18.50;;;16.50;;
26838;SDS011;40088;51.214;6.786;2022-11-20T18:17:11;17.83;;;15.93;;
26838;SDS011;40088;51.214;6.786;2022-11-20T18:27:14;17.73;;;15.25;;
26838;SDS011;40088;51.214;6.786;2022-11-20T18:37:15;15.80;;;14.10;;
26838;SDS011;40088;51.214;6.786;2022-11-20T18:47:20;16.42;;;14.43;;
26838;SDS011;40088;51.214;6.786;2022-11-20T18:57:29;15.90;;;13.83;;
26838;SDS011;40088;51.214;6.786;2022-11-20T19:07:30;14.65;;;13.15;;
26838;SDS011;40088;51.214;6.786;2022-11-20T19:17:31;15.82;;;12.50;;
26838;SDS011;40088;51.214;6.786;2022-11-20T19:27:32;13.90;;;11.93;;
26838;SDS011;40088;51.214;6.786;2022-11-20T19:37:32;13.75;;;12.27;;
26838;SDS011;40088;51.214;6.786;2022-11-20T19:47:33;12.70;;;11.32;;
26838;SDS011;40088;51.214;6.786;2022-11-20T19:57:33;12.25;;;11.02;;
26838;SDS011;40088;51.214;6.786;2022-11-20T20:07:33;12.48;;;11.02;;
26838;SDS011;40088;51.214;6.786;2022-11-20T20:17:34;12.15;;;10.43;;
26838;SDS011;40088;51.214;6.786;2022-11-20T20:27:34;11.05;;;9.75;;
26838;SDS011;40088;51.214;6.786;2022-11-20T20:37:35;11.55;;;9.35;;
26838;SDS011;40088;51.214;6.786;2022-11-20T20:47:36;10.38;;;9.25;;
26838;SDS011;40088;51.214;6.786;2022-11-20T20:57:37;11.63;;;8.38;;
26838;SDS011;40088;51.214;6.786;2022-11-20T21:07:38;10.63;;;8.35;;
26838;SDS011;40088;51.214;6.786;2022-11-20T21:17:58;12.20;;;7.72;;
26838;SDS011;40088;51.214;6.786;2022-11-20T21:27:58;9.63;;;7.30;;
26838;SDS011;40088;51.214;6.786;2022-11-20T21:37:58;11.00;;;7.57;;
26838;SDS011;40088;51.214;6.786;2022-11-20T21:47:58;12.05;;;7.28;;
26838;SDS011;40088;51.214;6.786;2022-11-20T21:57:59;9.55;;;6.90;;
26838;SDS011;40088;51.214;6.786;2022-11-20T22:08:00;9.00;;;6.53;;
26838;SDS011;40088;51.214;6.786;2022-11-20T22:18:00;9.75;;;6.22;;
26838;SDS011;40088;51.214;6.786;2022-11-20T22:28:13;7.97;;;5.85;;
26838;SDS011;40088;51.214;6.786;2022-11-20T22:38:13;9.18;;;6.10;;
26838;SDS011;40088;51.214;6.786;2022-11-20T22:48:13;8.43;;;5.90;;
26838;SDS011;40088;51.214;6.786;2022-11-20T22:58:13;7.68;;;5.55;;
26838;SDS011;40088;51.214;6.786;2022-11-20T23:08:14;8.75;;;5.80;;
26838;SDS011;40088;51.214;6.786;2022-11-20T23:18:14;8.30;;;5.10;;
26838;SDS011;40088;51.214;6.786;2022-11-20T23:28:14;7.18;;;4.78;;
26838;SDS011;40088;51.214;6.786;2022-11-20T23:38:14;7.22;;;4.60;;
26838;SDS011;40088;51.214;6.786;2022-11-20T23:48:15;6.55;;;4.60;;
26838;SDS011;40088;51.214;6.786;2022-11-20T23:58:17;7.82;;;4.68;;
